Time;durP1;ratioP1;P1;durP2;ratioP2;P2;SDS_P1;SDS_P2;PMS_P1;PMS_P2;Temp;Humidity;BMP_temperature;BMP_pressure;BME280_temperature;BME280_humidity;BME280_pressure;Samples;Min_cycle;Max_cycle;Signal;HPM_P1;HPM_P2
2023/02/28 00:00:39;;;;;;;6.38;3.30;;;;;;;0.35;54.48;101071.78;10346443;28;20049;-78
2023/02/28 00:05:41;;;;;;;5.85;3.25;;;;;;;0.23;54.67;101070.94;10347014;28;20140;-78
2023/02/28 00:10:43;;;;;;;7.30;3.33;;;;;;;0.03;55.21;101075.22;10344505;28;20076;-78
2023/02/28 00:15:45;;;;;;;8.27;3.58;;;;;;;0.05;55.29;101071.78;10341914;28;20511;-79
2023/02/28 00:20:47;;;;;;;10.35;3.55;;;;;;;0.06;55.33;101081.19;10347154;28;20084;-78
2023/02/28 00:25:50;;;;;;;6.50;3.20;;;;;;;-0.01;55.54;101069.22;10342886;28;20065;-78
2023/02/28 00:30:51;;;;;;;6.20;3.10;;;;;;;-0.08;55.63;101064.91;10341539;28;20077;-78
2023/02/28 00:36:08;;;;;;;7.82;3.10;;;;;;;-0.16;56.67;101069.19;10348391;28;20483;-78
2023/02/28 00:41:10;;;;;;;9.35;3.70;;;;;;;-0.05;55.70;101070.06;10355231;28;20089;-78
2023/02/28 00:46:12;;;;;;;6.95;3.38;;;;;;;0.07;55.93;101071.78;10337457;28;20045;-78
2023/02/28 00:51:13;;;;;;;6.95;3.50;;;;;;;-0.12;56.09;101070.03;10344139;28;20549;-78
2023/02/28 00:56:15;;;;;;;5.75;3.40;;;;;;;-0.32;56.08;101073.44;10341926;28;20590;-78
2023/02/28 01:01:17;;;;;;;6.38;3.80;;;;;;;-0.40;56.59;101082.84;10346695;28;20076;-79
2023/02/28 01:06:19;;;;;;;5.43;3.42;;;;;;;-0.45;56.22;101075.94;10345424;28;20046;-78
2023/02/28 01:11:20;;;;;;;6.60;3.65;;;;;;;-0.47;56.36;101078.53;10342637;28;20073;-78
2023/02/28 01:16:23;;;;;;;7.95;3.90;;;;;;;-0.51;56.29;101074.22;10345488;28;20052;-78
2023/02/28 01:21:24;;;;;;;6.70;3.80;;;;;;;-0.65;56.37;101075.91;10343804;28;20542;-78
2023/02/28 01:26:26;;;;;;;9.25;4.47;;;;;;;-0.82;57.34;101080.09;10340430;28;20124;-78
2023/02/28 01:31:28;;;;;;;7.45;4.25;;;;;;;-0.64;56.56;101075.06;10336093;28;20396;-78
2023/02/28 01:36:30;;;;;;;6.95;4.18;;;;;;;-0.59;56.68;101068.22;10347096;28;20053;-78
2023/02/28 01:41:34;;;;;;;6.63;3.95;;;;;;;-0.49;56.62;101072.53;10341922;28;20140;-79
2023/02/28 01:46:35;;;;;;;7.65;3.88;;;;;;;-0.38;56.34;101070.00;10341174;28;20416;-79
2023/02/28 01:51:52;;;;;;;7.47;4.32;;;;;;;-0.33;56.38;101064.00;10349951;28;20543;-78
2023/02/28 01:57:06;;;;;;;6.82;4.15;;;;;;;-0.27;56.16;101064.88;10352187;28;20054;-78
2023/02/28 02:02:07;;;;;;;8.25;4.53;;;;;;;-0.37;56.23;101064.84;10369532;28;20054;-79
2023/02/28 02:07:10;;;;;;;7.30;4.93;;;;;;;-0.61;56.82;101059.63;10350487;28;20368;-79
2023/02/28 02:12:46;;;;;;;7.60;4.05;;;;;;;-0.55;56.78;101063.94;10352848;28;20060;-78
2023/02/28 02:17:52;;;;;;;7.28;4.00;;;;;;;-0.49;56.25;101054.53;10352113;28;20058;-78
2023/02/28 02:23:31;;;;;;;6.95;3.95;;;;;;;-0.69;56.66;101051.06;10352468;28;20060;-78
2023/02/28 02:29:11;;;;;;;8.00;3.92;;;;;;;-0.81;56.77;101040.72;10353743;28;20568;-79
2023/02/28 02:34:27;;;;;;;7.25;4.00;;;;;;;-0.84;56.79;101045.00;10349268;28;20835;-78
2023/02/28 02:39:40;;;;;;;7.40;4.10;;;;;;;-0.95;56.80;101041.53;10347996;28;20049;-78
2023/02/28 02:44:53;;;;;;;7.03;4.38;;;;;;;-0.99;56.75;101043.22;10349739;28;20049;-78
2023/02/28 02:50:00;;;;;;;6.75;3.92;;;;;;;-1.07;56.85;101041.47;10345321;28;20053;-79
2023/02/28 02:55:03;;;;;;;6.32;3.67;;;;;;;-1.15;56.80;101041.44;10353964;28;20145;-79
2023/02/28 03:00:09;;;;;;;6.47;3.90;;;;;;;-1.20;56.80;101051.69;10354420;28;20049;-78
2023/02/28 03:05:35;;;;;;;8.02;3.90;;;;;;;-1.29;57.24;101051.59;10355168;28;20042;-78
2023/02/28 03:10:51;;;;;;;5.40;3.47;;;;;;;-1.41;57.17;101050.69;10351920;28;20064;-78
2023/02/28 03:16:12;;;;;;;7.95;3.85;;;;;;;-1.44;57.20;101050.66;10357595;28;20491;-78
2023/02/28 03:21:27;;;;;;;7.68;4.00;;;;;;;-1.43;57.36;101055.78;10353949;28;20507;-78
2023/02/28 03:26:29;;;;;;;8.40;3.95;;;;;;;-1.45;57.46;101054.09;10355263;28;20136;-79
2023/02/28 03:31:41;;;;;;;7.53;4.00;;;;;;;-1.51;57.38;101052.31;10357644;28;20144;-79
2023/02/28 03:36:48;;;;;;;7.88;3.92;;;;;;;-1.65;57.24;101045.38;10355919;28;20062;-79
2023/02/28 03:41:59;;;;;;;6.63;4.00;;;;;;;-1.69;57.60;101049.63;10352578;28;20414;-79
2023/02/28 03:47:13;;;;;;;8.68;4.70;;;;;;;-1.65;57.63;101053.06;10357287;28;20050;-79
2023/02/28 03:52:18;;;;;;;6.88;4.00;;;;;;;-1.71;57.63;101058.16;10353069;28;20064;-79
2023/02/28 03:57:32;;;;;;;5.72;3.80;;;;;;;-1.77;58.00;101065.78;10352487;28;21390;-78
2023/02/28 04:02:33;;;;;;;6.22;4.32;;;;;;;-1.79;57.68;101063.22;10343752;28;20050;-78
2023/02/28 04:07:35;;;;;;;7.40;4.05;;;;;;;-1.80;57.84;101061.53;10351506;28;20066;-78
2023/02/28 04:12:37;;;;;;;7.43;4.55;;;;;;;-1.80;57.74;101066.66;10350869;28;20057;-78
2023/02/28 04:17:39;;;;;;;6.85;4.22;;;;;;;-1.81;57.86;101067.47;10365834;28;20060;-78
2023/02/28 04:22:40;;;;;;;8.50;4.28;;;;;;;-1.85;57.92;101068.31;10347844;28;20052;-79
2023/02/28 04:27:44;;;;;;;7.30;4.47;;;;;;;-1.90;57.73;101070.00;10349602;28;20411;-79
2023/02/28 04:32:46;;;;;;;6.53;4.03;;;;;;;-1.93;57.91;101064.81;10347209;28;20050;-78
2023/02/28 04:37:48;;;;;;;10.95;4.55;;;;;;;-1.97;58.01;101065.63;10347674;28;20062;-79
2023/02/28 04:42:49;;;;;;;8.13;4.55;;;;;;;-2.01;58.13;101074.16;10347479;28;20056;-78
2023/02/28 04:47:51;;;;;;;11.55;4.80;;;;;;;-2.08;58.71;101070.66;10344459;28;20081;-79
2023/02/28 04:52:54;;;;;;;8.02;4.80;;;;;;;-2.15;58.70;101078.28;10347145;28;20133;-79
2023/02/28 04:57:55;;;;;;;10.70;5.47;;;;;;;-2.19;58.74;101077.41;10266896;28;20053;-78
2023/02/28 05:02:57;;;;;;;10.20;5.00;;;;;;;-2.24;58.76;101073.06;10271124;28;20054;-78
2023/02/28 05:08:01;;;;;;;8.98;4.60;;;;;;;-2.27;58.64;101073.91;10260010;28;20420;-79
2023/02/28 05:13:04;;;;;;;10.82;5.30;;;;;;;-2.25;58.62;101079.91;10261189;28;20050;-79
2023/02/28 05:18:08;;;;;;;8.93;5.05;;;;;;;-2.33;58.81;101080.66;10257300;28;20074;-80
2023/02/28 05:23:13;;;;;;;12.07;5.22;;;;;;;-2.38;59.03;101082.31;10258655;28;20046;-79
2023/02/28 05:28:16;;;;;;;7.85;4.88;;;;;;;-2.47;59.50;101084.78;10270998;28;20051;-79
2023/02/28 05:33:20;;;;;;;8.73;5.68;;;;;;;-2.56;59.74;101087.22;10275766;28;20055;-79
2023/02/28 05:38:26;;;;;;;9.40;5.30;;;;;;;-2.58;59.96;101089.78;10272131;28;20146;-80
2023/02/28 05:43:28;;;;;;;8.10;5.63;;;;;;;-2.58;59.76;101094.91;10261898;28;20061;-80
2023/02/28 05:48:30;;;;;;;8.50;5.53;;;;;;;-2.51;59.77;101089.00;10257140;28;20051;-79
2023/02/28 05:53:32;;;;;;;8.20;5.55;;;;;;;-2.39;59.57;101095.97;10286088;28;20409;-79
2023/02/28 05:58:35;;;;;;;17.05;11.15;;;;;;;-2.22;59.28;101097.84;10338494;28;20046;-79
2023/02/28 06:03:38;;;;;;;7.90;5.63;;;;;;;-2.04;59.43;101097.16;10339582;28;20101;-80
2023/02/28 06:08:43;;;;;;;9.32;5.38;;;;;;;-2.02;59.58;101095.47;10348900;28;20061;-80
2023/02/28 06:13:44;;;;;;;9.88;5.82;;;;;;;-2.00;59.51;101097.22;10341897;28;20054;-79
2023/02/28 06:18:46;;;;;;;11.70;5.65;;;;;;;-1.90;59.52;101102.44;10345173;28;20060;-79
2023/02/28 06:23:48;;;;;;;8.95;6.13;;;;;;;-1.81;59.28;101103.38;10343856;28;20647;-79
2023/02/28 06:28:49;;;;;;;9.30;5.78;;;;;;;-1.75;59.11;101103.44;10343574;28;20069;-79
2023/02/28 06:33:51;;;;;;;8.80;5.70;;;;;;;-1.74;58.90;101112.00;10342686;28;20041;-79
2023/02/28 06:38:55;;;;;;;10.82;5.80;;;;;;;-1.62;59.07;101112.97;10353018;28;20056;-80
2023/02/28 06:43:57;;;;;;;8.63;5.57;;;;;;;-1.49;58.46;101124.19;10351724;28;20049;-79
2023/02/28 06:48:59;;;;;;;16.63;5.63;;;;;;;-1.44;57.90;101114.81;10353956;28;20058;-79
2023/02/28 06:54:01;;;;;;;9.23;5.40;;;;;;;-1.29;57.91;101130.31;10354187;28;20577;-79
2023/02/28 06:59:03;;;;;;;13.48;5.82;;;;;;;-1.05;57.73;101129.63;10354580;28;20060;-79
2023/02/28 07:04:06;;;;;;;8.35;5.63;;;;;;;-0.82;57.17;101131.44;10352092;28;20484;-79
2023/02/28 07:09:08;;;;;;;8.63;5.72;;;;;;;-0.79;56.57;101125.47;10351003;28;20049;-80
2023/02/28 07:14:10;;;;;;;11.75;5.43;;;;;;;-0.94;56.79;101128.81;10352473;28;20204;-79
2023/02/28 07:19:11;;;;;;;8.88;4.90;;;;;;;-1.18;57.03;101132.09;10349361;28;20049;-79
2023/02/28 07:24:15;;;;;;;9.23;5.40;;;;;;;-1.28;56.94;101124.31;10348700;28;20072;-79
2023/02/28 07:29:17;;;;;;;9.23;5.25;;;;;;;-1.05;56.75;101124.47;10347548;28;20791;-79
2023/02/28 07:34:20;;;;;;;8.98;5.32;;;;;;;-0.62;56.17;101124.72;10344454;28;20491;-79
2023/02/28 07:39:22;;;;;;;15.13;4.97;;;;;;;-0.36;55.93;101123.13;10362660;28;20104;-79
2023/02/28 07:44:24;;;;;;;6.82;4.35;;;;;;;-0.24;55.23;101127.44;10346972;28;20126;-79
2023/02/28 07:49:26;;;;;;;8.65;4.50;;;;;;;0.01;55.08;101126.66;10342096;28;20426;-79
2023/02/28 07:54:27;;;;;;;8.93;4.70;;;;;;;0.22;54.18;101133.53;10343149;28;20513;-79
2023/02/28 07:59:29;;;;;;;7.93;4.88;;;;;;;0.43;53.54;101133.53;10348943;28;20072;-79
2023/02/28 08:04:32;;;;;;;10.43;4.72;;;;;;;0.58;52.92;101133.56;10346951;28;20045;-79
2023/02/28 08:09:34;;;;;;;8.13;4.28;;;;;;;0.85;52.39;101122.38;10348830;28;21759;-79
2023/02/28 08:14:36;;;;;;;9.80;4.88;;;;;;;1.06;51.98;101122.31;10347852;28;20305;-78
2023/02/28 08:19:39;;;;;;;9.02;4.32;;;;;;;1.42;51.29;101118.78;10336016;28;20058;-78
2023/02/28 08:24:43;;;;;;;5.90;3.72;;;;;;;1.57;50.54;101121.28;10343366;28;20056;-79
2023/02/28 08:29:47;;;;;;;8.85;4.10;;;;;;;1.61;50.03;101115.25;10335515;28;20056;-78
2023/02/28 08:34:49;;;;;;;6.30;3.80;;;;;;;1.35;49.23;101111.09;10336158;28;20155;-79
2023/02/28 08:39:54;;;;;;;6.07;3.70;;;;;;;1.11;46.66;101111.16;10342149;28;20069;-79
2023/02/28 08:44:57;;;;;;;6.88;3.67;;;;;;;1.20;46.20;101116.28;10339265;28;20220;-78
2023/02/28 08:50:01;;;;;;;7.50;3.30;;;;;;;1.23;44.67;101130.88;10341457;28;20060;-79
2023/02/28 08:55:04;;;;;;;5.78;3.47;;;;;;;1.56;45.73;101109.28;10340436;28;20071;-79
2023/02/28 09:00:07;;;;;;;6.20;3.22;;;;;;;1.53;44.77;101107.56;10341409;28;20133;-78
2023/02/28 09:05:09;;;;;;;5.40;3.45;;;;;;;1.65;44.02;101124.69;10338691;28;20095;-79
2023/02/28 09:10:11;;;;;;;6.22;3.30;;;;;;;2.06;44.84;101108.13;10313830;28;20557;-80
2023/02/28 09:15:14;;;;;;;7.85;3.28;;;;;;;2.30;43.47;101111.44;10322912;28;20056;-78
2023/02/28 09:20:16;;;;;;;10.00;3.88;;;;;;;2.17;42.62;101110.66;10322966;28;20141;-79
2023/02/28 09:25:19;;;;;;;6.80;3.40;;;;;;;2.45;43.02;101100.97;10326199;28;20061;-78
2023/02/28 09:30:21;;;;;;;7.20;3.10;;;;;;;2.25;41.82;101098.53;10317697;28;21220;-79
2023/02/28 09:35:26;;;;;;;5.35;3.20;;;;;;;2.25;40.88;101098.53;10321518;28;20100;-78
2023/02/28 09:40:30;;;;;;;5.60;3.40;;;;;;;2.40;41.47;101113.06;10320090;28;20456;-78
2023/02/28 09:45:36;;;;;;;6.93;3.35;;;;;;;3.00;40.81;101102.16;10322192;28;20045;-79
2023/02/28 09:50:55;;;;;;;5.85;3.50;;;;;;;2.78;40.12;101101.53;10322655;28;20416;-79
2023/02/28 09:56:28;;;;;;;5.93;3.55;;;;;;;3.23;39.13;101094.16;10325967;28;20062;-78
2023/02/28 10:01:45;;;;;;;5.72;3.05;;;;;;;2.94;38.70;101110.84;10323500;28;20049;-78
2023/02/28 10:06:51;;;;;;;4.68;3.03;;;;;;;3.23;39.67;101086.41;10318687;28;20050;-79
2023/02/28 10:12:02;;;;;;;5.57;3.10;;;;;;;3.16;38.34;101092.50;10324699;28;20124;-78
2023/02/28 10:17:21;;;;;;;5.17;3.10;;;;;;;3.23;38.65;101100.19;10318189;28;20069;-80
2023/02/28 10:22:41;;;;;;;5.25;3.15;;;;;;;3.09;38.40;101086.53;10324063;28;20133;-82
2023/02/28 10:27:43;;;;;;;6.10;2.85;;;;;;;2.91;39.84;101097.94;10330953;28;20116;-79
2023/02/28 10:32:54;;;;;;;5.32;2.90;;;;;;;3.16;38.73;101098.53;10332514;28;20251;-79
2023/02/28 10:38:00;;;;;;;5.15;3.17;;;;;;;3.52;38.31;101105.88;10335017;28;20050;-79
2023/02/28 10:43:24;;;;;;;7.78;3.45;;;;;;;3.18;36.81;101101.97;10330518;28;20054;-79
2023/02/28 10:48:37;;;;;;;5.78;3.45;;;;;;;2.94;36.71;101104.81;10330725;28;20516;-79
2023/02/28 10:53:42;;;;;;;5.40;3.30;;;;;;;3.22;38.92;101103.66;10336008;28;20574;-79
2023/02/28 10:59:02;;;;;;;6.95;3.40;;;;;;;3.98;37.77;101098.38;10332676;28;20069;-79
2023/02/28 11:04:19;;;;;;;4.93;3.20;;;;;;;3.84;35.94;101103.72;10338268;28;20489;-79
2023/02/28 11:09:47;;;;;;;6.25;3.38;;;;;;;3.59;36.73;101099.75;10333383;28;20095;-79
2023/02/28 11:14:53;;;;;;;8.55;3.50;;;;;;;3.68;37.85;101098.78;10336342;28;20050;-79
2023/02/28 11:20:07;;;;;;;4.88;3.13;;;;;;;3.23;36.08;101091.59;10333592;28;20058;-79
2023/02/28 11:25:33;;;;;;;6.32;3.60;;;;;;;3.22;35.42;101093.31;10334341;28;20156;-79
2023/02/28 11:30:40;;;;;;;4.28;3.00;;;;;;;3.55;35.70;101082.56;10340719;28;20070;-79
2023/02/28 11:35:42;;;;;;;6.43;3.78;;;;;;;3.39;36.22;101075.00;10335785;28;20046;-79
2023/02/28 11:41:06;;;;;;;5.90;3.40;;;;;;;3.48;35.15;101070.56;10330036;28;20056;-79
2023/02/28 11:46:17;;;;;;;5.80;3.67;;;;;;;3.54;34.83;101077.38;10334427;28;20057;-79
2023/02/28 11:51:33;;;;;;;6.22;3.60;;;;;;;3.77;35.99;101058.09;10332019;28;20069;-79
2023/02/28 11:56:45;;;;;;;5.05;3.30;;;;;;;4.13;35.85;101055.88;10335796;28;20151;-80
2023/02/28 12:02:00;;;;;;;4.55;3.28;;;;;;;4.26;34.58;101063.44;10333546;28;20058;-79
2023/02/28 12:07:40;;;;;;;7.25;3.60;;;;;;;3.89;35.36;101077.81;10334277;28;20054;-79
2023/02/28 12:12:56;;;;;;;5.65;3.33;;;;;;;4.17;35.86;101060.13;10333051;28;20530;-77
2023/02/28 12:18:23;;;;;;;4.93;3.40;;;;;;;4.30;33.92;101061.63;10337266;28;20100;-79
2023/02/28 12:23:52;;;;;;;5.72;3.53;;;;;;;4.76;33.74;101046.16;10334664;28;20060;-79
2023/02/28 12:29:10;;;;;;;5.15;3.58;;;;;;;4.76;35.69;101038.41;10333518;28;20120;-79
2023/02/28 12:34:20;;;;;;;7.90;4.10;;;;;;;4.55;34.06;101037.91;10344402;28;20140;-80
2023/02/28 12:39:31;;;;;;;5.15;3.60;;;;;;;4.53;33.43;101051.75;10346715;28;20062;-80
2023/02/28 12:44:54;;;;;;;5.85;3.75;;;;;;;4.68;33.68;101038.50;10349027;28;20086;-79
2023/02/28 12:50:11;;;;;;;5.20;3.88;;;;;;;4.41;33.64;101042.44;10355645;28;20054;-80
2023/02/28 12:55:43;;;;;;;8.43;3.97;;;;;;;4.06;33.23;101034.41;10347559;28;20042;-80
2023/02/28 13:01:27;;;;;;;6.90;4.18;;;;;;;4.33;34.44;101031.34;10312492;28;20053;-80
2023/02/28 13:06:41;;;;;;;7.13;4.18;;;;;;;3.98;33.91;101040.59;10355308;28;20558;-79
2023/02/28 13:11:51;;;;;;;7.47;4.95;;;;;;;3.89;35.16;101044.16;10347404;28;20761;-79
2023/02/28 13:16:53;;;;;;;8.17;4.80;;;;;;;3.93;35.67;101039.78;10340081;28;20046;-79
2023/02/28 13:21:56;;;;;;;6.78;4.45;;;;;;;3.56;35.11;101047.19;10346498;28;21030;-79
2023/02/28 13:27:01;;;;;;;6.70;4.20;;;;;;;3.88;34.99;101045.06;10346777;28;20085;-79
2023/02/28 13:32:10;;;;;;;6.18;4.35;;;;;;;3.76;34.76;101033.09;10344774;28;20917;-79
2023/02/28 13:37:21;;;;;;;7.53;4.60;;;;;;;3.97;34.73;101036.28;10347598;28;20042;-80
2023/02/28 13:42:37;;;;;;;6.82;4.35;;;;;;;3.77;35.72;101018.44;10345338;28;20847;-80
2023/02/28 13:47:47;;;;;;;7.53;4.25;;;;;;;4.13;35.76;101030.84;10346016;28;20054;-79
2023/02/28 13:53:14;;;;;;;6.00;4.25;;;;;;;4.05;35.70;101022.34;10346672;28;20137;-79
2023/02/28 13:58:33;;;;;;;7.20;5.00;;;;;;;4.14;35.93;101019.63;10344535;28;20056;-80
2023/02/28 14:03:55;;;;;;;8.02;4.57;;;;;;;4.28;35.96;101025.41;10340773;28;20104;-79
2023/02/28 14:09:00;;;;;;;7.72;4.32;;;;;;;4.29;36.68;101026.28;10350672;28;20052;-79
2023/02/28 14:14:07;;;;;;;7.07;4.47;;;;;;;4.56;36.72;101018.00;10337206;28;20136;-79
2023/02/28 14:19:10;;;;;;;6.53;4.10;;;;;;;4.64;36.71;101017.00;10340308;28;20484;-79
2023/02/28 14:24:46;;;;;;;7.53;4.13;;;;;;;4.23;37.19;101006.50;10345807;28;20986;-79
2023/02/28 14:30:06;;;;;;;13.45;4.22;;;;;;;4.51;37.76;101005.16;10347461;28;20065;-79
2023/02/28 14:35:40;;;;;;;9.73;4.25;;;;;;;4.55;36.71;101001.63;10356519;28;20045;-79
2023/02/28 14:40:44;;;;;;;5.45;3.53;;;;;;;4.72;37.05;101003.06;10342331;28;20054;-79
2023/02/28 14:45:54;;;;;;;9.15;4.10;;;;;;;4.55;36.45;100998.19;10335863;28;20056;-79
2023/02/28 14:51:01;;;;;;;6.30;4.28;;;;;;;4.51;36.84;100992.22;10337501;28;20058;-79
2023/02/28 14:56:04;;;;;;;8.95;4.35;;;;;;;4.20;36.39;101001.38;10344645;28;20053;-79
2023/02/28 15:01:10;;;;;;;5.72;3.85;;;;;;;4.42;36.66;100994.94;10348749;28;20089;-79
2023/02/28 15:06:17;;;;;;;7.90;4.45;;;;;;;4.33;37.21;100982.16;10349047;28;20128;-79
2023/02/28 15:11:22;;;;;;;5.55;3.75;;;;;;;4.34;37.03;100993.38;10350429;28;20407;-79
2023/02/28 15:16:38;;;;;;;5.78;3.92;;;;;;;4.21;36.80;100982.38;10351639;28;20057;-79
2023/02/28 15:21:45;;;;;;;6.60;3.90;;;;;;;4.38;37.04;100982.06;10349057;28;20056;-80
2023/02/28 15:26:54;;;;;;;6.28;4.40;;;;;;;4.42;36.29;100992.38;10353075;28;20056;-79
2023/02/28 15:32:07;;;;;;;8.20;4.50;;;;;;;3.91;35.61;100998.41;10346056;28;20832;-79
2023/02/28 15:37:37;;;;;;;6.25;4.20;;;;;;;4.06;35.95;100993.00;10352429;28;20053;-79
2023/02/28 15:42:39;;;;;;;6.82;4.10;;;;;;;4.13;36.70;100993.75;10358086;28;20050;-80
2023/02/28 15:47:47;;;;;;;7.30;4.00;;;;;;;4.04;36.51;101005.13;10352341;28;20414;-80
2023/02/28 15:52:49;;;;;;;7.03;4.00;;;;;;;4.19;36.95;100989.31;10349911;28;20054;-79
2023/02/28 15:57:53;;;;;;;7.35;4.18;;;;;;;4.09;37.32;100992.94;10352734;28;20582;-79
2023/02/28 16:02:56;;;;;;;6.75;4.35;;;;;;;3.92;37.49;100984.59;10349716;28;20133;-80
2023/02/28 16:08:06;;;;;;;5.50;3.85;;;;;;;3.93;37.70;100993.19;10348250;28;20419;-79
2023/02/28 16:13:14;;;;;;;7.28;4.40;;;;;;;3.95;38.41;100994.91;10342760;28;20050;-79
2023/02/28 16:18:16;;;;;;;7.82;4.35;;;;;;;3.74;38.05;100995.22;10344395;28;20554;-80
2023/02/28 16:23:22;;;;;;;8.88;4.60;;;;;;;3.68;38.76;100996.13;10341605;28;20689;-80
2023/02/28 16:28:32;;;;;;;8.65;4.63;;;;;;;3.62;38.75;100997.97;10345254;28;20462;-80
2023/02/28 16:33:34;;;;;;;8.25;4.45;;;;;;;3.56;39.08;101004.06;10353020;28;20129;-80
2023/02/28 16:38:37;;;;;;;8.30;4.65;;;;;;;3.57;39.77;101000.63;10342998;28;20100;-79
2023/02/28 16:43:40;;;;;;;8.80;4.78;;;;;;;3.65;40.31;101005.69;10346403;28;20058;-79
2023/02/28 16:48:43;;;;;;;8.68;4.55;;;;;;;3.63;40.22;101010.88;10341925;28;20192;-80
2023/02/28 16:53:46;;;;;;;8.70;4.82;;;;;;;3.44;39.79;101017.19;10349013;28;20164;-80
2023/02/28 16:58:50;;;;;;;11.07;5.22;;;;;;;3.05;39.43;101031.47;10342220;28;20057;-80
2023/02/28 17:03:52;;;;;;;9.75;5.22;;;;;;;3.04;39.70;101034.94;10343028;28;20062;-79
2023/02/28 17:08:56;;;;;;;8.73;5.18;;;;;;;2.90;40.11;101031.66;10339935;28;20477;-79
2023/02/28 17:14:02;;;;;;;9.63;4.90;;;;;;;2.70;39.70;101045.66;10347100;28;20061;-79
2023/02/28 17:19:05;;;;;;;7.65;5.18;;;;;;;2.58;40.11;101054.34;10344203;28;20057;-79
2023/02/28 17:24:13;;;;;;;9.73;5.50;;;;;;;2.52;40.43;101054.41;10345274;28;20108;-79
2023/02/28 17:29:25;;;;;;;8.63;4.97;;;;;;;2.41;41.41;101058.81;10343586;28;20048;-79
2023/02/28 17:34:27;;;;;;;7.65;5.22;;;;;;;2.32;41.25;101058.91;10344788;28;20107;-79
2023/02/28 17:39:31;;;;;;;10.07;5.53;;;;;;;2.26;41.83;101074.44;10345006;28;20618;-79
2023/02/28 17:44:33;;;;;;;7.45;5.40;;;;;;;2.19;41.85;101073.63;10344036;28;20057;-79
2023/02/28 17:49:34;;;;;;;9.43;5.85;;;;;;;2.12;41.81;101076.25;10344538;28;20061;-79
2023/02/28 17:54:37;;;;;;;14.15;6.43;;;;;;;2.04;42.30;101078.91;10345839;28;20050;-79
2023/02/28 17:59:40;;;;;;;14.05;6.95;;;;;;;1.93;42.79;101091.00;10327043;28;20061;-79
2023/02/28 18:04:42;;;;;;;9.15;5.90;;;;;;;1.80;42.64;101094.53;10341040;28;20054;-79
2023/02/28 18:09:44;;;;;;;11.98;6.28;;;;;;;1.69;43.42;101095.44;10343261;28;20064;-79
2023/02/28 18:14:47;;;;;;;12.40;7.72;;;;;;;1.67;43.43;101092.00;10345979;28;20052;-79
2023/02/28 18:19:51;;;;;;;16.42;8.32;;;;;;;1.55;43.20;101094.66;10342143;28;20056;-79
2023/02/28 18:24:54;;;;;;;17.48;9.00;;;;;;;1.46;43.87;101093.00;10342817;28;20379;-79
2023/02/28 18:29:55;;;;;;;13.02;8.05;;;;;;;1.33;44.08;101096.47;10339918;28;20054;-78
2023/02/28 18:34:57;;;;;;;13.23;8.30;;;;;;;1.27;44.24;101104.25;10352130;28;20042;-78
2023/02/28 18:39:59;;;;;;;15.45;8.25;;;;;;;1.25;44.36;101103.38;10349265;28;20450;-78
2023/02/28 18:45:01;;;;;;;13.23;8.23;;;;;;;1.17;44.66;101098.25;10350390;28;20118;-79
2023/02/28 18:50:05;;;;;;;14.38;8.88;;;;;;;1.14;44.93;101094.81;10347891;28;20060;-79
2023/02/28 18:55:07;;;;;;;15.55;9.32;;;;;;;1.05;45.32;101098.31;10356188;28;20057;-78
2023/02/28 19:00:11;;;;;;;15.25;9.30;;;;;;;0.97;45.28;101094.84;10351507;28;20056;-79
2023/02/28 19:05:13;;;;;;;14.85;8.93;;;;;;;0.88;45.41;101102.63;10345545;28;20046;-79
2023/02/28 19:10:17;;;;;;;14.55;8.23;;;;;;;0.75;45.99;101106.06;10349460;28;20068;-79
2023/02/28 19:15:19;;;;;;;14.15;8.63;;;;;;;0.63;46.32;101108.66;10355077;28;20053;-79
2023/02/28 19:20:21;;;;;;;16.85;9.82;;;;;;;0.56;46.54;101113.81;10348940;28;20141;-79
2023/02/28 19:25:23;;;;;;;14.27;9.13;;;;;;;0.48;46.70;101111.25;10353993;28;20413;-79
2023/02/28 19:30:25;;;;;;;18.33;9.75;;;;;;;0.45;46.78;101121.53;10346248;28;20155;-79
2023/02/28 19:35:28;;;;;;;18.52;9.20;;;;;;;0.38;47.08;101117.25;10344449;28;20507;-79
2023/02/28 19:40:31;;;;;;;18.23;10.43;;;;;;;0.33;47.60;101112.09;10350291;28;20089;-80
2023/02/28 19:45:35;;;;;;;15.32;10.00;;;;;;;0.29;47.80;101122.38;10354684;28;20141;-80
2023/02/28 19:50:37;;;;;;;17.50;10.43;;;;;;;0.17;48.25;101122.38;10352807;28;20046;-79
2023/02/28 19:55:38;;;;;;;16.10;10.13;;;;;;;0.09;48.56;101132.66;10355138;28;20053;-79
2023/02/28 20:00:40;;;;;;;17.70;11.20;;;;;;;-0.00;48.84;101131.75;10354669;28;20466;-79
2023/02/28 20:05:42;;;;;;;17.20;11.32;;;;;;;-0.04;49.08;101127.47;10352700;28;20061;-80
2023/02/28 20:10:44;;;;;;;20.73;12.27;;;;;;;-0.14;49.24;101128.31;10351895;28;20049;-80
2023/02/28 20:15:45;;;;;;;17.23;11.27;;;;;;;-0.13;49.42;101123.19;10352021;28;20136;-80
2023/02/28 20:20:47;;;;;;;17.75;11.32;;;;;;;-0.18;49.44;101124.00;10352886;28;20111;-80
2023/02/28 20:25:50;;;;;;;18.48;12.18;;;;;;;-0.21;49.44;101126.59;10345914;28;20073;-79
2023/02/28 20:30:52;;;;;;;16.52;10.35;;;;;;;-0.22;49.67;101114.56;10343745;28;20049;-79
2023/02/28 20:35:58;;;;;;;16.02;10.35;;;;;;;-0.28;49.69;101112.84;10346759;28;20077;-80
2023/02/28 20:41:01;;;;;;;17.83;10.70;;;;;;;-0.34;49.87;101116.28;10349552;28;20061;-79
2023/02/28 20:46:03;;;;;;;17.52;11.40;;;;;;;-0.37;49.91;101113.69;10347706;28;20053;-79
2023/02/28 20:51:05;;;;;;;24.00;15.25;;;;;;;-0.42;49.96;101111.94;10350489;28;20062;-79
2023/02/28 20:56:12;;;;;;;15.88;11.07;;;;;;;-0.46;50.16;101113.66;10345447;28;20060;-79
2023/02/28 21:01:16;;;;;;;19.30;12.00;;;;;;;-0.49;50.23;101116.22;10344519;28;20053;-79
2023/02/28 21:06:21;;;;;;;31.90;18.58;;;;;;;-0.56;50.59;101114.47;10340026;28;20042;-79
2023/02/28 21:11:27;;;;;;;31.27;17.58;;;;;;;-0.63;50.74;101112.72;10345560;28;20427;-79
2023/02/28 21:16:30;;;;;;;22.15;13.48;;;;;;;-0.66;51.02;101105.03;10346940;28;20054;-79
2023/02/28 21:21:38;;;;;;;21.90;13.75;;;;;;;-0.70;51.51;101111.00;10343127;28;20052;-79
2023/02/28 21:26:43;;;;;;;26.65;13.30;;;;;;;-0.70;51.34;101116.13;10348690;28;20577;-80
2023/02/28 21:31:51;;;;;;;28.33;14.95;;;;;;;-0.68;51.41;101114.44;10346454;28;20054;-79
2023/02/28 21:36:53;;;;;;;18.30;12.07;;;;;;;-0.73;51.35;101110.97;10347592;28;20100;-79
2023/02/28 21:42:02;;;;;;;19.08;12.18;;;;;;;-0.75;51.24;101104.09;10348248;28;20093;-79
2023/02/28 21:47:04;;;;;;;20.73;13.13;;;;;;;-0.80;51.29;101111.78;10361884;28;20459;-79
2023/02/28 21:52:06;;;;;;;22.17;13.25;;;;;;;-0.81;51.23;101107.50;10344196;28;20054;-79
2023/02/28 21:57:08;;;;;;;31.45;16.90;;;;;;;-0.87;51.61;101104.91;10349436;28;20057;-79
2023/02/28 22:02:11;;;;;;;37.22;21.20;;;;;;;-0.89;51.95;101105.75;10347327;28;20397;-79
2023/02/28 22:07:13;;;;;;;23.88;14.80;;;;;;;-0.93;51.90;101117.72;10355972;28;20139;-79
2023/02/28 22:12:15;;;;;;;18.30;12.90;;;;;;;-0.92;51.62;101127.13;10354358;28;20529;-79
2023/02/28 22:17:17;;;;;;;19.92;12.82;;;;;;;-0.97;51.83;101128.81;10356094;28;20060;-79
2023/02/28 22:22:18;;;;;;;18.35;12.15;;;;;;;-0.94;51.94;101133.97;10356175;28;20050;-79
2023/02/28 22:27:20;;;;;;;20.05;12.02;;;;;;;-0.93;51.69;101137.38;10357143;28;20042;-79
2023/02/28 22:32:22;;;;;;;17.83;10.65;;;;;;;-1.00;51.95;101141.63;10352601;28;20150;-79
2023/02/28 22:37:23;;;;;;;17.77;10.95;;;;;;;-1.03;51.75;101136.47;10354863;28;20484;-79
2023/02/28 22:42:25;;;;;;;18.42;11.85;;;;;;;-1.12;52.01;101138.97;10359249;28;20140;-79
2023/02/28 22:47:27;;;;;;;18.38;11.88;;;;;;;-1.13;52.19;101129.56;10352304;28;20046;-81
2023/02/28 22:52:41;;;;;;;29.52;12.15;;;;;;;-1.15;52.50;101136.41;10356277;28;20136;-81
2023/02/28 22:57:43;;;;;;;32.92;12.00;;;;;;;-1.17;52.26;101132.97;10353680;28;20099;-81
2023/02/28 23:02:46;;;;;;;24.98;11.57;;;;;;;-1.21;52.11;101141.50;10355477;28;20050;-80
2023/02/28 23:07:47;;;;;;;21.33;11.18;;;;;;;-1.25;52.29;101145.72;10354356;28;20129;-80
2023/02/28 23:12:49;;;;;;;25.17;11.57;;;;;;;-1.34;52.77;101148.25;10351154;28;20046;-80
2023/02/28 23:17:51;;;;;;;17.05;11.48;;;;;;;-1.34;52.93;101149.94;10351497;28;20068;-80
2023/02/28 23:22:52;;;;;;;24.75;11.45;;;;;;;-1.41;52.90;101148.19;10354533;28;20518;-80
2023/02/28 23:27:54;;;;;;;23.65;12.27;;;;;;;-1.40;52.93;101150.75;10354760;28;20057;-81